sensor_id;sensor_type;location;lat;lon;timestamp;P1;durP1;ratioP1;P2;durP2;ratioP2
70122;SDS011;57489;37.404;24.920;2023-04-24T00:01:35;4.77;;;2.20;;
70122;SDS011;57489;37.404;24.920;2023-04-24T00:06:36;4.93;;;2.60;;
70122;SDS011;57489;37.404;24.920;2023-04-24T00:11:37;5.53;;;2.50;;
70122;SDS011;57489;37.404;24.920;2023-04-24T00:16:37;6.17;;;2.60;;
70122;SDS011;57489;37.404;24.920;2023-04-24T00:21:38;5.83;;;2.30;;
70122;SDS011;57489;37.404;24.920;2023-04-24T00:26:38;5.30;;;2.40;;
70122;SDS011;57489;37.404;24.920;2023-04-24T00:31:39;5.47;;;2.13;;
70122;SDS011;57489;37.404;24.920;2023-04-24T00:36:40;5.35;;;2.70;;
70122;SDS011;57489;37.404;24.920;2023-04-24T00:41:40;5.23;;;2.70;;
70122;SDS011;57489;37.404;24.920;2023-04-24T00:46:40;5.87;;;2.50;;
70122;SDS011;57489;37.404;24.920;2023-04-24T00:51:42;5.50;;;2.43;;
70122;SDS011;57489;37.404;24.920;2023-04-24T00:56:42;5.10;;;2.60;;
70122;SDS011;57489;37.404;24.920;2023-04-24T01:01:44;5.37;;;2.50;;
70122;SDS011;57489;37.404;24.920;2023-04-24T01:06:45;5.70;;;2.50;;
70122;SDS011;57489;37.404;24.920;2023-04-24T01:11:45;4.70;;;2.43;;
70122;SDS011;57489;37.404;24.920;2023-04-24T01:16:46;5.57;;;2.70;;
70122;SDS011;57489;37.404;24.920;2023-04-24T01:21:47;4.77;;;2.80;;
70122;SDS011;57489;37.404;24.920;2023-04-24T01:26:52;4.68;;;2.40;;
70122;SDS011;57489;37.404;24.920;2023-04-24T01:31:53;4.93;;;2.43;;
70122;SDS011;57489;37.404;24.920;2023-04-24T01:36:54;6.57;;;3.03;;
70122;SDS011;57489;37.404;24.920;2023-04-24T01:41:55;5.50;;;2.70;;
70122;SDS011;57489;37.404;24.920;2023-04-24T01:46:56;5.33;;;2.23;;
70122;SDS011;57489;37.404;24.920;2023-04-24T01:51:56;5.10;;;2.60;;
70122;SDS011;57489;37.404;24.920;2023-04-24T01:56:57;4.83;;;2.50;;
70122;SDS011;57489;37.404;24.920;2023-04-24T02:01:57;4.57;;;2.10;;
70122;SDS011;57489;37.404;24.920;2023-04-24T02:06:58;5.70;;;2.97;;
70122;SDS011;57489;37.404;24.920;2023-04-24T02:11:58;5.13;;;2.27;;
70122;SDS011;57489;37.404;24.920;2023-04-24T02:16:59;6.43;;;3.10;;
70122;SDS011;57489;37.404;24.920;2023-04-24T02:21:59;4.33;;;2.37;;
70122;SDS011;57489;37.404;24.920;2023-04-24T02:27:00;6.23;;;2.50;;
70122;SDS011;57489;37.404;24.920;2023-04-24T02:32:00;5.17;;;2.53;;
70122;SDS011;57489;37.404;24.920;2023-04-24T02:37:00;5.23;;;2.43;;
70122;SDS011;57489;37.404;24.920;2023-04-24T02:42:01;5.57;;;2.73;;
70122;SDS011;57489;37.404;24.920;2023-04-24T02:47:01;4.63;;;2.27;;
70122;SDS011;57489;37.404;24.920;2023-04-24T02:52:02;4.60;;;2.20;;
70122;SDS011;57489;37.404;24.920;2023-04-24T02:57:02;5.33;;;2.60;;
70122;SDS011;57489;37.404;24.920;2023-04-24T03:02:03;5.13;;;2.50;;
70122;SDS011;57489;37.404;24.920;2023-04-24T03:07:03;4.43;;;2.13;;
70122;SDS011;57489;37.404;24.920;2023-04-24T03:12:04;4.57;;;2.33;;
70122;SDS011;57489;37.404;24.920;2023-04-24T03:17:04;7.10;;;2.93;;
70122;SDS011;57489;37.404;24.920;2023-04-24T03:22:05;5.90;;;2.77;;
70122;SDS011;57489;37.404;24.920;2023-04-24T03:27:05;4.30;;;2.28;;
70122;SDS011;57489;37.404;24.920;2023-04-24T03:32:05;4.93;;;2.37;;
70122;SDS011;57489;37.404;24.920;2023-04-24T03:37:06;3.90;;;2.27;;
70122;SDS011;57489;37.404;24.920;2023-04-24T03:42:06;5.13;;;2.20;;
70122;SDS011;57489;37.404;24.920;2023-04-24T03:47:07;4.60;;;2.50;;
70122;SDS011;57489;37.404;24.920;2023-04-24T03:52:07;4.57;;;2.50;;
70122;SDS011;57489;37.404;24.920;2023-04-24T03:57:08;4.07;;;2.07;;
70122;SDS011;57489;37.404;24.920;2023-04-24T04:02:08;4.93;;;2.37;;
70122;SDS011;57489;37.404;24.920;2023-04-24T04:07:09;4.60;;;2.10;;
70122;SDS011;57489;37.404;24.920;2023-04-24T04:12:09;4.20;;;2.33;;
70122;SDS011;57489;37.404;24.920;2023-04-24T04:17:09;4.53;;;2.20;;
70122;SDS011;57489;37.404;24.920;2023-04-24T04:22:10;5.07;;;2.73;;
70122;SDS011;57489;37.404;24.920;2023-04-24T04:27:10;4.07;;;2.23;;
70122;SDS011;57489;37.404;24.920;2023-04-24T04:32:11;5.00;;;2.23;;
70122;SDS011;57489;37.404;24.920;2023-04-24T04:37:11;8.20;;;4.27;;
70122;SDS011;57489;37.404;24.920;2023-04-24T04:42:12;9.63;;;3.47;;
70122;SDS011;57489;37.404;24.920;2023-04-24T04:47:12;13.27;;;3.93;;
70122;SDS011;57489;37.404;24.920;2023-04-24T04:52:13;8.87;;;3.60;;
70122;SDS011;57489;37.404;24.920;2023-04-24T04:57:13;15.07;;;4.47;;
70122;SDS011;57489;37.404;24.920;2023-04-24T05:02:13;16.73;;;5.60;;
70122;SDS011;57489;37.404;24.920;2023-04-24T05:07:14;14.47;;;4.70;;
70122;SDS011;57489;37.404;24.920;2023-04-24T05:12:14;19.57;;;5.57;;
70122;SDS011;57489;37.404;24.920;2023-04-24T05:17:15;17.57;;;5.53;;
70122;SDS011;57489;37.404;24.920;2023-04-24T05:22:15;21.97;;;6.37;;
70122;SDS011;57489;37.404;24.920;2023-04-24T05:27:16;21.73;;;5.93;;
70122;SDS011;57489;37.404;24.920;2023-04-24T05:32:16;22.57;;;6.07;;
70122;SDS011;57489;37.404;24.920;2023-04-24T05:37:17;27.20;;;7.17;;
70122;SDS011;57489;37.404;24.920;2023-04-24T05:42:17;23.63;;;6.80;;
70122;SDS011;57489;37.404;24.920;2023-04-24T05:47:18;26.67;;;6.47;;
70122;SDS011;57489;37.404;24.920;2023-04-24T05:52:18;25.40;;;6.97;;
70122;SDS011;57489;37.404;24.920;2023-04-24T05:57:19;27.10;;;7.60;;
70122;SDS011;57489;37.404;24.920;2023-04-24T06:02:19;16.90;;;5.87;;
70122;SDS011;57489;37.404;24.920;2023-04-24T06:07:20;24.27;;;6.47;;
70122;SDS011;57489;37.404;24.920;2023-04-24T06:12:20;19.97;;;5.70;;
70122;SDS011;57489;37.404;24.920;2023-04-24T06:17:21;23.83;;;7.17;;
70122;SDS011;57489;37.404;24.920;2023-04-24T06:22:21;26.63;;;6.10;;
70122;SDS011;57489;37.404;24.920;2023-04-24T06:27:21;20.90;;;5.60;;
70122;SDS011;57489;37.404;24.920;2023-04-24T06:32:22;15.93;;;5.83;;
70122;SDS011;57489;37.404;24.920;2023-04-24T06:37:23;22.37;;;6.63;;
70122;SDS011;57489;37.404;24.920;2023-04-24T06:42:24;22.63;;;6.67;;
70122;SDS011;57489;37.404;24.920;2023-04-24T06:47:26;17.00;;;5.70;;
70122;SDS011;57489;37.404;24.920;2023-04-24T06:52:26;25.35;;;7.47;;
70122;SDS011;57489;37.404;24.920;2023-04-24T06:57:27;16.47;;;5.40;;
70122;SDS011;57489;37.404;24.920;2023-04-24T07:02:27;20.73;;;6.67;;
70122;SDS011;57489;37.404;24.920;2023-04-24T07:07:28;18.60;;;5.97;;
70122;SDS011;57489;37.404;24.920;2023-04-24T07:12:28;19.33;;;6.20;;
70122;SDS011;57489;37.404;24.920;2023-04-24T07:17:29;19.07;;;6.07;;
70122;SDS011;57489;37.404;24.920;2023-04-24T07:22:29;14.43;;;5.47;;
70122;SDS011;57489;37.404;24.920;2023-04-24T07:27:30;18.63;;;6.00;;
70122;SDS011;57489;37.404;24.920;2023-04-24T07:32:30;16.77;;;6.03;;
70122;SDS011;57489;37.404;24.920;2023-04-24T07:37:31;15.53;;;5.13;;
70122;SDS011;57489;37.404;24.920;2023-04-24T07:42:31;18.27;;;5.13;;
70122;SDS011;57489;37.404;24.920;2023-04-24T07:47:32;16.37;;;4.93;;
70122;SDS011;57489;37.404;24.920;2023-04-24T07:52:33;17.85;;;5.32;;
70122;SDS011;57489;37.404;24.920;2023-04-24T07:57:34;13.27;;;5.60;;
70122;SDS011;57489;37.404;24.920;2023-04-24T08:02:34;13.33;;;5.17;;
70122;SDS011;57489;37.404;24.920;2023-04-24T08:07:35;13.57;;;4.60;;
70122;SDS011;57489;37.404;24.920;2023-04-24T08:12:35;9.00;;;4.28;;
70122;SDS011;57489;37.404;24.920;2023-04-24T08:17:36;7.10;;;4.20;;
70122;SDS011;57489;37.404;24.920;2023-04-24T08:22:37;13.33;;;4.40;;
70122;SDS011;57489;37.404;24.920;2023-04-24T08:27:37;10.10;;;3.97;;
70122;SDS011;57489;37.404;24.920;2023-04-24T08:32:38;8.07;;;3.70;;
70122;SDS011;57489;37.404;24.920;2023-04-24T08:37:39;8.57;;;3.60;;
70122;SDS011;57489;37.404;24.920;2023-04-24T08:42:41;12.50;;;4.30;;
70122;SDS011;57489;37.404;24.920;2023-04-24T08:47:44;9.10;;;4.07;;
70122;SDS011;57489;37.404;24.920;2023-04-24T08:52:45;8.60;;;3.75;;
70122;SDS011;57489;37.404;24.920;2023-04-24T08:57:52;11.17;;;4.00;;
70122;SDS011;57489;37.404;24.920;2023-04-24T09:02:53;7.25;;;3.63;;
70122;SDS011;57489;37.404;24.920;2023-04-24T09:07:54;7.90;;;3.53;;
70122;SDS011;57489;37.404;24.920;2023-04-24T09:12:56;6.77;;;3.90;;
70122;SDS011;57489;37.404;24.920;2023-04-24T09:17:58;7.70;;;3.97;;
70122;SDS011;57489;37.404;24.920;2023-04-24T09:22:59;8.17;;;3.97;;
70122;SDS011;57489;37.404;24.920;2023-04-24T09:28:03;9.43;;;3.93;;
70122;SDS011;57489;37.404;24.920;2023-04-24T09:33:13;7.53;;;4.10;;
70122;SDS011;57489;37.404;24.920;2023-04-24T09:38:14;10.70;;;4.20;;
70122;SDS011;57489;37.404;24.920;2023-04-24T09:43:15;11.57;;;5.00;;
70122;SDS011;57489;37.404;24.920;2023-04-24T09:48:15;8.67;;;4.63;;
70122;SDS011;57489;37.404;24.920;2023-04-24T09:53:16;9.07;;;5.00;;
70122;SDS011;57489;37.404;24.920;2023-04-24T09:58:25;12.70;;;6.07;;
70122;SDS011;57489;37.404;24.920;2023-04-24T10:03:26;7.57;;;4.80;;
70122;SDS011;57489;37.404;24.920;2023-04-24T10:08:36;9.73;;;4.55;;
70122;SDS011;57489;37.404;24.920;2023-04-24T10:13:37;8.10;;;4.53;;
70122;SDS011;57489;37.404;24.920;2023-04-24T10:18:37;7.50;;;4.27;;
70122;SDS011;57489;37.404;24.920;2023-04-24T10:23:39;8.25;;;4.60;;
70122;SDS011;57489;37.404;24.920;2023-04-24T10:28:41;10.57;;;5.27;;
70122;SDS011;57489;37.404;24.920;2023-04-24T10:33:42;8.70;;;4.50;;
70122;SDS011;57489;37.404;24.920;2023-04-24T10:38:45;8.15;;;4.10;;
70122;SDS011;57489;37.404;24.920;2023-04-24T10:43:46;8.10;;;4.70;;
70122;SDS011;57489;37.404;24.920;2023-04-24T10:48:53;11.47;;;4.73;;
70122;SDS011;57489;37.404;24.920;2023-04-24T10:53:55;10.20;;;4.30;;
70122;SDS011;57489;37.404;24.920;2023-04-24T10:58:57;8.60;;;4.10;;
70122;SDS011;57489;37.404;24.920;2023-04-24T11:04:01;11.27;;;4.40;;
70122;SDS011;57489;37.404;24.920;2023-04-24T11:14:07;8.38;;;3.67;;
70122;SDS011;57489;37.404;24.920;2023-04-24T11:34:55;13.63;;;3.70;;
70122;SDS011;57489;37.404;24.920;2023-04-24T11:40:00;9.02;;;3.30;;
70122;SDS011;57489;37.404;24.920;2023-04-24T11:45:01;8.40;;;4.27;;
70122;SDS011;57489;37.404;24.920;2023-04-24T11:50:08;9.63;;;3.88;;
70122;SDS011;57489;37.404;24.920;2023-04-24T12:00:15;12.23;;;3.67;;
70122;SDS011;57489;37.404;24.920;2023-04-24T12:05:19;14.67;;;3.70;;
70122;SDS011;57489;37.404;24.920;2023-04-24T12:10:20;10.10;;;3.70;;
70122;SDS011;57489;37.404;24.920;2023-04-24T12:15:22;14.18;;;3.47;;
70122;SDS011;57489;37.404;24.920;2023-04-24T12:20:24;11.33;;;3.63;;
70122;SDS011;57489;37.404;24.920;2023-04-24T12:25:28;7.72;;;3.70;;
70122;SDS011;57489;37.404;24.920;2023-04-24T12:30:30;12.48;;;3.65;;
70122;SDS011;57489;37.404;24.920;2023-04-24T12:35:32;7.80;;;4.00;;
70122;SDS011;57489;37.404;24.920;2023-04-24T12:40:33;8.88;;;3.40;;
70122;SDS011;57489;37.404;24.920;2023-04-24T12:45:34;8.53;;;3.50;;
70122;SDS011;57489;37.404;24.920;2023-04-24T12:50:34;8.93;;;4.13;;
70122;SDS011;57489;37.404;24.920;2023-04-24T12:55:35;12.50;;;4.03;;
70122;SDS011;57489;37.404;24.920;2023-04-24T13:00:36;7.65;;;3.72;;
70122;SDS011;57489;37.404;24.920;2023-04-24T13:05:36;10.00;;;3.50;;
70122;SDS011;57489;37.404;24.920;2023-04-24T13:10:37;11.03;;;3.47;;
70122;SDS011;57489;37.404;24.920;2023-04-24T13:15:37;8.20;;;4.13;;
70122;SDS011;57489;37.404;24.920;2023-04-24T13:20:38;6.43;;;3.17;;
70122;SDS011;57489;37.404;24.920;2023-04-24T13:25:38;7.37;;;3.50;;
70122;SDS011;57489;37.404;24.920;2023-04-24T13:30:39;8.77;;;3.40;;
70122;SDS011;57489;37.404;24.920;2023-04-24T13:35:39;9.00;;;3.30;;
70122;SDS011;57489;37.404;24.920;2023-04-24T13:40:39;7.73;;;3.30;;
70122;SDS011;57489;37.404;24.920;2023-04-24T13:45:40;10.13;;;3.73;;
70122;SDS011;57489;37.404;24.920;2023-04-24T13:50:41;7.40;;;3.03;;
70122;SDS011;57489;37.404;24.920;2023-04-24T13:55:42;7.13;;;3.35;;
70122;SDS011;57489;37.404;24.920;2023-04-24T14:00:42;11.10;;;3.50;;
70122;SDS011;57489;37.404;24.920;2023-04-24T14:05:43;11.03;;;3.37;;
70122;SDS011;57489;37.404;24.920;2023-04-24T14:10:43;6.47;;;3.30;;
70122;SDS011;57489;37.404;24.920;2023-04-24T14:15:44;8.53;;;3.63;;
70122;SDS011;57489;37.404;24.920;2023-04-24T14:20:44;12.20;;;4.03;;
70122;SDS011;57489;37.404;24.920;2023-04-24T14:25:45;8.65;;;3.58;;
70122;SDS011;57489;37.404;24.920;2023-04-24T14:30:46;10.97;;;3.30;;
70122;SDS011;57489;37.404;24.920;2023-04-24T14:35:47;10.50;;;3.47;;
70122;SDS011;57489;37.404;24.920;2023-04-24T14:40:47;9.90;;;3.60;;
70122;SDS011;57489;37.404;24.920;2023-04-24T14:45:48;9.43;;;3.37;;
70122;SDS011;57489;37.404;24.920;2023-04-24T14:50:48;14.43;;;3.67;;
70122;SDS011;57489;37.404;24.920;2023-04-24T14:55:49;6.23;;;3.40;;
70122;SDS011;57489;37.404;24.920;2023-04-24T15:00:49;8.53;;;4.07;;
70122;SDS011;57489;37.404;24.920;2023-04-24T15:05:50;8.38;;;3.92;;
70122;SDS011;57489;37.404;24.920;2023-04-24T15:10:50;9.33;;;3.80;;
70122;SDS011;57489;37.404;24.920;2023-04-24T15:15:51;9.97;;;3.33;;
70122;SDS011;57489;37.404;24.920;2023-04-24T15:20:51;8.17;;;3.53;;
70122;SDS011;57489;37.404;24.920;2023-04-24T15:25:52;6.63;;;3.60;;
70122;SDS011;57489;37.404;24.920;2023-04-24T15:30:52;7.30;;;3.93;;
70122;SDS011;57489;37.404;24.920;2023-04-24T15:35:53;7.63;;;3.30;;
70122;SDS011;57489;37.404;24.920;2023-04-24T15:40:53;6.50;;;3.17;;
70122;SDS011;57489;37.404;24.920;2023-04-24T15:45:54;13.50;;;4.20;;
70122;SDS011;57489;37.404;24.920;2023-04-24T15:50:54;9.05;;;3.63;;
70122;SDS011;57489;37.404;24.920;2023-04-24T15:55:55;6.13;;;3.50;;
70122;SDS011;57489;37.404;24.920;2023-04-24T16:00:55;8.30;;;3.60;;
70122;SDS011;57489;37.404;24.920;2023-04-24T16:05:56;6.73;;;3.50;;
70122;SDS011;57489;37.404;24.920;2023-04-24T16:10:56;8.30;;;3.40;;
70122;SDS011;57489;37.404;24.920;2023-04-24T16:15:57;15.47;;;4.10;;
70122;SDS011;57489;37.404;24.920;2023-04-24T16:20:57;9.97;;;4.17;;
70122;SDS011;57489;37.404;24.920;2023-04-24T16:25:57;7.73;;;3.53;;
70122;SDS011;57489;37.404;24.920;2023-04-24T16:30:58;10.57;;;4.13;;
70122;SDS011;57489;37.404;24.920;2023-04-24T16:35:58;9.43;;;3.77;;
70122;SDS011;57489;37.404;24.920;2023-04-24T16:40:59;12.67;;;3.87;;
70122;SDS011;57489;37.404;24.920;2023-04-24T16:45:59;7.80;;;4.03;;
70122;SDS011;57489;37.404;24.920;2023-04-24T16:51:00;6.93;;;3.63;;
70122;SDS011;57489;37.404;24.920;2023-04-24T16:56:00;8.53;;;3.93;;
70122;SDS011;57489;37.404;24.920;2023-04-24T17:01:01;10.90;;;4.13;;
70122;SDS011;57489;37.404;24.920;2023-04-24T17:06:02;9.70;;;3.87;;
70122;SDS011;57489;37.404;24.920;2023-04-24T17:11:02;13.37;;;3.70;;
70122;SDS011;57489;37.404;24.920;2023-04-24T17:16:03;11.57;;;3.90;;
70122;SDS011;57489;37.404;24.920;2023-04-24T17:21:03;13.07;;;4.40;;
70122;SDS011;57489;37.404;24.920;2023-04-24T17:26:04;9.60;;;4.07;;
70122;SDS011;57489;37.404;24.920;2023-04-24T17:31:04;14.20;;;3.83;;
70122;SDS011;57489;37.404;24.920;2023-04-24T17:36:05;12.37;;;3.90;;
70122;SDS011;57489;37.404;24.920;2023-04-24T17:41:05;10.13;;;3.60;;
70122;SDS011;57489;37.404;24.920;2023-04-24T17:46:06;9.57;;;3.63;;
70122;SDS011;57489;37.404;24.920;2023-04-24T17:51:06;9.97;;;4.27;;
70122;SDS011;57489;37.404;24.920;2023-04-24T17:56:07;8.77;;;3.57;;
70122;SDS011;57489;37.404;24.920;2023-04-24T18:01:07;10.57;;;4.03;;
70122;SDS011;57489;37.404;24.920;2023-04-24T18:06:08;12.20;;;4.03;;
70122;SDS011;57489;37.404;24.920;2023-04-24T18:11:08;12.57;;;4.17;;
70122;SDS011;57489;37.404;24.920;2023-04-24T18:16:09;12.23;;;4.30;;
70122;SDS011;57489;37.404;24.920;2023-04-24T18:21:09;8.97;;;4.17;;
70122;SDS011;57489;37.404;24.920;2023-04-24T18:26:10;13.03;;;3.97;;
70122;SDS011;57489;37.404;24.920;2023-04-24T18:31:11;16.90;;;3.73;;
70122;SDS011;57489;37.404;24.920;2023-04-24T18:36:11;8.17;;;4.57;;
70122;SDS011;57489;37.404;24.920;2023-04-24T18:41:12;13.23;;;4.07;;
70122;SDS011;57489;37.404;24.920;2023-04-24T18:46:12;8.17;;;4.33;;
70122;SDS011;57489;37.404;24.920;2023-04-24T18:51:13;13.63;;;4.17;;
70122;SDS011;57489;37.404;24.920;2023-04-24T18:56:13;9.67;;;4.43;;
70122;SDS011;57489;37.404;24.920;2023-04-24T19:01:14;10.20;;;5.10;;
70122;SDS011;57489;37.404;24.920;2023-04-24T19:06:14;9.07;;;4.47;;
70122;SDS011;57489;37.404;24.920;2023-04-24T19:11:15;12.90;;;5.93;;
70122;SDS011;57489;37.404;24.920;2023-04-24T19:16:15;13.50;;;4.60;;
70122;SDS011;57489;37.404;24.920;2023-04-24T19:21:16;13.70;;;3.83;;
70122;SDS011;57489;37.404;24.920;2023-04-24T19:26:16;13.40;;;4.40;;
70122;SDS011;57489;37.404;24.920;2023-04-24T19:31:17;13.97;;;3.83;;
70122;SDS011;57489;37.404;24.920;2023-04-24T19:36:18;9.45;;;3.97;;
70122;SDS011;57489;37.404;24.920;2023-04-24T19:41:19;11.47;;;4.60;;
70122;SDS011;57489;37.404;24.920;2023-04-24T19:46:19;10.40;;;4.13;;
70122;SDS011;57489;37.404;24.920;2023-04-24T19:51:20;9.07;;;3.97;;
70122;SDS011;57489;37.404;24.920;2023-04-24T19:56:20;8.17;;;4.40;;
70122;SDS011;57489;37.404;24.920;2023-04-24T20:01:20;9.43;;;3.80;;
70122;SDS011;57489;37.404;24.920;2023-04-24T20:06:21;6.87;;;3.77;;
70122;SDS011;57489;37.404;24.920;2023-04-24T20:11:21;7.93;;;3.57;;
70122;SDS011;57489;37.404;24.920;2023-04-24T20:16:22;12.17;;;4.77;;
70122;SDS011;57489;37.404;24.920;2023-04-24T20:21:22;9.60;;;4.03;;
70122;SDS011;57489;37.404;24.920;2023-04-24T20:26:23;9.20;;;4.27;;
70122;SDS011;57489;37.404;24.920;2023-04-24T20:31:23;11.33;;;4.07;;
70122;SDS011;57489;37.404;24.920;2023-04-24T20:36:24;9.30;;;4.30;;
70122;SDS011;57489;37.404;24.920;2023-04-24T20:41:25;10.80;;;4.30;;
70122;SDS011;57489;37.404;24.920;2023-04-24T20:46:25;6.83;;;3.87;;
70122;SDS011;57489;37.404;24.920;2023-04-24T20:51:26;9.23;;;3.70;;
70122;SDS011;57489;37.404;24.920;2023-04-24T20:56:26;8.73;;;4.77;;
70122;SDS011;57489;37.404;24.920;2023-04-24T21:01:27;8.37;;;4.03;;
70122;SDS011;57489;37.404;24.920;2023-04-24T21:06:27;8.57;;;3.87;;
70122;SDS011;57489;37.404;24.920;2023-04-24T21:11:28;10.50;;;4.00;;
70122;SDS011;57489;37.404;24.920;2023-04-24T21:16:28;11.23;;;3.90;;
70122;SDS011;57489;37.404;24.920;2023-04-24T21:21:29;8.57;;;4.13;;
70122;SDS011;57489;37.404;24.920;2023-04-24T21:26:29;8.27;;;3.70;;
70122;SDS011;57489;37.404;24.920;2023-04-24T21:31:30;8.55;;;4.13;;
70122;SDS011;57489;37.404;24.920;2023-04-24T21:36:30;8.73;;;3.40;;
70122;SDS011;57489;37.404;24.920;2023-04-24T21:41:31;8.63;;;3.80;;
70122;SDS011;57489;37.404;24.920;2023-04-24T21:46:32;8.50;;;3.83;;
70122;SDS011;57489;37.404;24.920;2023-04-24T21:51:32;8.00;;;3.97;;
70122;SDS011;57489;37.404;24.920;2023-04-24T21:56:33;9.83;;;4.50;;
70122;SDS011;57489;37.404;24.920;2023-04-24T22:01:33;8.10;;;3.67;;
70122;SDS011;57489;37.404;24.920;2023-04-24T22:06:34;7.23;;;3.33;;
70122;SDS011;57489;37.404;24.920;2023-04-24T22:11:35;8.93;;;3.90;;
70122;SDS011;57489;37.404;24.920;2023-04-24T22:16:35;5.88;;;3.20;;
70122;SDS011;57489;37.404;24.920;2023-04-24T22:21:36;6.23;;;3.50;;
70122;SDS011;57489;37.404;24.920;2023-04-24T22:26:38;7.10;;;3.53;;
70122;SDS011;57489;37.404;24.920;2023-04-24T22:31:39;7.10;;;3.53;;
70122;SDS011;57489;37.404;24.920;2023-04-24T22:36:40;8.13;;;3.53;;
70122;SDS011;57489;37.404;24.920;2023-04-24T22:41:40;7.00;;;3.30;;
70122;SDS011;57489;37.404;24.920;2023-04-24T22:46:41;7.67;;;3.63;;
70122;SDS011;57489;37.404;24.920;2023-04-24T22:51:42;6.67;;;3.43;;
70122;SDS011;57489;37.404;24.920;2023-04-24T22:56:43;8.60;;;3.13;;
70122;SDS011;57489;37.404;24.920;2023-04-24T23:01:43;6.90;;;2.90;;
70122;SDS011;57489;37.404;24.920;2023-04-24T23:06:44;7.20;;;3.40;;
70122;SDS011;57489;37.404;24.920;2023-04-24T23:11:45;5.80;;;3.13;;
70122;SDS011;57489;37.404;24.920;2023-04-24T23:16:45;6.83;;;3.10;;
70122;SDS011;57489;37.404;24.920;2023-04-24T23:21:46;7.13;;;3.60;;
70122;SDS011;57489;37.404;24.920;2023-04-24T23:26:46;6.57;;;3.10;;
70122;SDS011;57489;37.404;24.920;2023-04-24T23:31:47;6.63;;;3.43;;
70122;SDS011;57489;37.404;24.920;2023-04-24T23:36:48;7.33;;;3.83;;
70122;SDS011;57489;37.404;24.920;2023-04-24T23:41:49;8.38;;;2.97;;
70122;SDS011;57489;37.404;24.920;2023-04-24T23:46:50;5.93;;;3.17;;
70122;SDS011;57489;37.404;24.920;2023-04-24T23:51:50;5.87;;;2.87;;
70122;SDS011;57489;37.404;24.920;2023-04-24T23:56:51;8.27;;;3.20;;
